sensor_id;sensor_type;location;lat;lon;timestamp;P1;durP1;ratioP1;P2;durP2;ratioP2
53927;SDS011;39837;47.630;18.822;2023-03-01T00:02:19;10.32;;;6.47;;
53927;SDS011;39837;47.630;18.822;2023-03-01T00:05:03;13.02;;;6.90;;
53927;SDS011;39837;47.630;18.822;2023-03-01T00:07:48;8.32;;;5.35;;
53927;SDS011;39837;47.630;18.822;2023-03-01T00:10:32;10.15;;;5.63;;
53927;SDS011;39837;47.630;18.822;2023-03-01T00:13:16;9.15;;;4.70;;
53927;SDS011;39837;47.630;18.822;2023-03-01T00:16:04;6.38;;;5.63;;
53927;SDS011;39837;47.630;18.822;2023-03-01T00:18:49;14.27;;;5.75;;
53927;SDS011;39837;47.630;18.822;2023-03-01T00:21:34;8.43;;;5.72;;
53927;SDS011;39837;47.630;18.822;2023-03-01T00:24:18;8.90;;;6.07;;
53927;SDS011;39837;47.630;18.822;2023-03-01T00:27:03;8.13;;;4.78;;
53927;SDS011;39837;47.630;18.822;2023-03-01T00:29:46;10.45;;;6.03;;
53927;SDS011;39837;47.630;18.822;2023-03-01T00:32:31;6.85;;;5.70;;
53927;SDS011;39837;47.630;18.822;2023-03-01T00:35:15;11.35;;;5.45;;
53927;SDS011;39837;47.630;18.822;2023-03-01T00:37:59;6.82;;;5.47;;
53927;SDS011;39837;47.630;18.822;2023-03-01T00:40:42;9.05;;;6.03;;
53927;SDS011;39837;47.630;18.822;2023-03-01T00:43:27;12.23;;;6.63;;
53927;SDS011;39837;47.630;18.822;2023-03-01T00:46:12;10.95;;;7.07;;
53927;SDS011;39837;47.630;18.822;2023-03-01T00:48:58;10.43;;;7.13;;
53927;SDS011;39837;47.630;18.822;2023-03-01T00:51:45;9.38;;;6.38;;
53927;SDS011;39837;47.630;18.822;2023-03-01T00:54:29;11.45;;;6.32;;
53927;SDS011;39837;47.630;18.822;2023-03-01T00:57:13;10.70;;;6.95;;
53927;SDS011;39837;47.630;18.822;2023-03-01T00:59:57;12.15;;;6.93;;
53927;SDS011;39837;47.630;18.822;2023-03-01T01:02:41;14.93;;;7.32;;
53927;SDS011;39837;47.630;18.822;2023-03-01T01:05:25;16.52;;;8.10;;
53927;SDS011;39837;47.630;18.822;2023-03-01T01:08:09;9.30;;;5.90;;
53927;SDS011;39837;47.630;18.822;2023-03-01T01:10:53;11.13;;;7.25;;
53927;SDS011;39837;47.630;18.822;2023-03-01T01:13:37;13.27;;;7.10;;
53927;SDS011;39837;47.630;18.822;2023-03-01T01:16:22;13.38;;;6.15;;
53927;SDS011;39837;47.630;18.822;2023-03-01T01:19:08;12.70;;;6.32;;
53927;SDS011;39837;47.630;18.822;2023-03-01T01:21:56;12.27;;;6.78;;
53927;SDS011;39837;47.630;18.822;2023-03-01T01:24:40;16.77;;;8.10;;
53927;SDS011;39837;47.630;18.822;2023-03-01T01:27:25;11.07;;;6.47;;
53927;SDS011;39837;47.630;18.822;2023-03-01T01:30:09;12.60;;;8.25;;
53927;SDS011;39837;47.630;18.822;2023-03-01T01:32:54;12.82;;;7.72;;
53927;SDS011;39837;47.630;18.822;2023-03-01T01:35:38;9.52;;;6.97;;
53927;SDS011;39837;47.630;18.822;2023-03-01T01:38:22;13.43;;;7.88;;
53927;SDS011;39837;47.630;18.822;2023-03-01T01:41:06;9.15;;;6.78;;
53927;SDS011;39837;47.630;18.822;2023-03-01T01:47:17;9.57;;;6.82;;
53927;SDS011;39837;47.630;18.822;2023-03-01T01:50:02;10.88;;;6.95;;
53927;SDS011;39837;47.630;18.822;2023-03-01T01:52:47;15.07;;;6.25;;
53927;SDS011;39837;47.630;18.822;2023-03-01T01:55:32;10.77;;;6.75;;
53927;SDS011;39837;47.630;18.822;2023-03-01T01:58:18;9.02;;;7.03;;
53927;SDS011;39837;47.630;18.822;2023-03-01T02:01:03;8.32;;;5.30;;
53927;SDS011;39837;47.630;18.822;2023-03-01T02:03:48;9.40;;;5.10;;
53927;SDS011;39837;47.630;18.822;2023-03-01T02:06:34;5.60;;;5.07;;
53927;SDS011;39837;47.630;18.822;2023-03-01T02:09:20;11.50;;;6.55;;
53927;SDS011;39837;47.630;18.822;2023-03-01T02:12:06;10.55;;;6.63;;
53927;SDS011;39837;47.630;18.822;2023-03-01T02:14:50;7.35;;;5.97;;
53927;SDS011;39837;47.630;18.822;2023-03-01T02:17:35;7.82;;;6.38;;
53927;SDS011;39837;47.630;18.822;2023-03-01T02:23:40;11.18;;;5.38;;
53927;SDS011;39837;47.630;18.822;2023-03-01T02:26:40;17.23;;;7.25;;
53927;SDS011;39837;47.630;18.822;2023-03-01T02:29:28;10.88;;;6.43;;
53927;SDS011;39837;47.630;18.822;2023-03-01T02:32:12;8.23;;;5.80;;
53927;SDS011;39837;47.630;18.822;2023-03-01T02:34:57;7.50;;;5.35;;
53927;SDS011;39837;47.630;18.822;2023-03-01T02:37:41;13.98;;;6.65;;
53927;SDS011;39837;47.630;18.822;2023-03-01T02:40:27;10.95;;;6.72;;
53927;SDS011;39837;47.630;18.822;2023-03-01T02:43:13;10.15;;;5.65;;
53927;SDS011;39837;47.630;18.822;2023-03-01T02:45:59;12.35;;;5.70;;
53927;SDS011;39837;47.630;18.822;2023-03-01T02:48:49;6.95;;;5.00;;
53927;SDS011;39837;47.630;18.822;2023-03-01T02:54:40;10.18;;;5.65;;
53927;SDS011;39837;47.630;18.822;2023-03-01T02:57:28;6.65;;;5.55;;
53927;SDS011;39837;47.630;18.822;2023-03-01T03:00:15;7.55;;;4.88;;
53927;SDS011;39837;47.630;18.822;2023-03-01T03:03:03;7.97;;;5.72;;
53927;SDS011;39837;47.630;18.822;2023-03-01T03:05:47;10.13;;;5.25;;
53927;SDS011;39837;47.630;18.822;2023-03-01T03:08:31;7.43;;;5.70;;
53927;SDS011;39837;47.630;18.822;2023-03-01T03:11:15;6.28;;;5.30;;
53927;SDS011;39837;47.630;18.822;2023-03-01T03:14:00;7.40;;;5.13;;
53927;SDS011;39837;47.630;18.822;2023-03-01T03:16:45;9.98;;;5.95;;
53927;SDS011;39837;47.630;18.822;2023-03-01T03:19:30;5.78;;;4.93;;
53927;SDS011;39837;47.630;18.822;2023-03-01T03:22:14;4.82;;;4.43;;
53927;SDS011;39837;47.630;18.822;2023-03-01T03:24:58;16.60;;;5.38;;
53927;SDS011;39837;47.630;18.822;2023-03-01T03:27:42;21.20;;;6.43;;
53927;SDS011;39837;47.630;18.822;2023-03-01T03:30:28;5.22;;;4.63;;
53927;SDS011;39837;47.630;18.822;2023-03-01T03:33:15;12.95;;;5.65;;
53927;SDS011;39837;47.630;18.822;2023-03-01T03:35:58;7.50;;;4.60;;
53927;SDS011;39837;47.630;18.822;2023-03-01T03:38:43;5.75;;;4.53;;
53927;SDS011;39837;47.630;18.822;2023-03-01T03:41:28;8.20;;;5.05;;
53927;SDS011;39837;47.630;18.822;2023-03-01T03:44:12;5.82;;;4.70;;
53927;SDS011;39837;47.630;18.822;2023-03-01T03:46:56;8.55;;;4.75;;
53927;SDS011;39837;47.630;18.822;2023-03-01T03:49:40;5.13;;;4.57;;
53927;SDS011;39837;47.630;18.822;2023-03-01T03:52:24;6.88;;;5.28;;
53927;SDS011;39837;47.630;18.822;2023-03-01T03:55:08;6.95;;;5.18;;
53927;SDS011;39837;47.630;18.822;2023-03-01T03:57:53;7.60;;;4.25;;
53927;SDS011;39837;47.630;18.822;2023-03-01T04:00:38;6.97;;;4.53;;
53927;SDS011;39837;47.630;18.822;2023-03-01T04:03:25;5.60;;;3.78;;
53927;SDS011;39837;47.630;18.822;2023-03-01T04:06:09;5.95;;;4.53;;
53927;SDS011;39837;47.630;18.822;2023-03-01T04:08:53;4.38;;;3.28;;
53927;SDS011;39837;47.630;18.822;2023-03-01T04:11:41;4.57;;;4.07;;
53927;SDS011;39837;47.630;18.822;2023-03-01T04:14:25;4.97;;;4.45;;
53927;SDS011;39837;47.630;18.822;2023-03-01T04:17:09;4.13;;;3.72;;
53927;SDS011;39837;47.630;18.822;2023-03-01T04:19:53;5.03;;;4.47;;
53927;SDS011;39837;47.630;18.822;2023-03-01T04:22:38;4.07;;;3.67;;
53927;SDS011;39837;47.630;18.822;2023-03-01T04:25:23;4.97;;;4.30;;
53927;SDS011;39837;47.630;18.822;2023-03-01T04:28:08;7.55;;;4.15;;
53927;SDS011;39837;47.630;18.822;2023-03-01T04:30:53;6.20;;;4.50;;
53927;SDS011;39837;47.630;18.822;2023-03-01T04:33:42;6.60;;;4.15;;
53927;SDS011;39837;47.630;18.822;2023-03-01T04:36:28;5.78;;;4.50;;
53927;SDS011;39837;47.630;18.822;2023-03-01T04:39:12;3.88;;;3.53;;
53927;SDS011;39837;47.630;18.822;2023-03-01T04:41:57;8.48;;;4.65;;
53927;SDS011;39837;47.630;18.822;2023-03-01T04:44:41;5.63;;;4.72;;
53927;SDS011;39837;47.630;18.822;2023-03-01T04:47:24;5.47;;;4.60;;
53927;SDS011;39837;47.630;18.822;2023-03-01T04:50:09;4.80;;;4.10;;
53927;SDS011;39837;47.630;18.822;2023-03-01T04:52:54;5.90;;;4.40;;
53927;SDS011;39837;47.630;18.822;2023-03-01T04:55:42;5.43;;;3.95;;
53927;SDS011;39837;47.630;18.822;2023-03-01T04:58:26;7.63;;;5.30;;
53927;SDS011;39837;47.630;18.822;2023-03-01T05:01:11;4.55;;;4.18;;
53927;SDS011;39837;47.630;18.822;2023-03-01T05:04:00;4.72;;;4.10;;
53927;SDS011;39837;47.630;18.822;2023-03-01T05:06:46;4.88;;;4.47;;
53927;SDS011;39837;47.630;18.822;2023-03-01T05:09:30;5.35;;;4.13;;
53927;SDS011;39837;47.630;18.822;2023-03-01T05:12:14;12.10;;;5.22;;
53927;SDS011;39837;47.630;18.822;2023-03-01T05:14:59;7.80;;;4.50;;
53927;SDS011;39837;47.630;18.822;2023-03-01T05:17:43;6.82;;;5.78;;
53927;SDS011;39837;47.630;18.822;2023-03-01T05:20:30;6.05;;;4.85;;
53927;SDS011;39837;47.630;18.822;2023-03-01T05:23:14;11.18;;;6.63;;
53927;SDS011;39837;47.630;18.822;2023-03-01T05:25:58;12.35;;;6.85;;
53927;SDS011;39837;47.630;18.822;2023-03-01T05:28:43;10.18;;;5.40;;
53927;SDS011;39837;47.630;18.822;2023-03-01T05:31:27;6.15;;;4.57;;
53927;SDS011;39837;47.630;18.822;2023-03-01T05:34:12;7.22;;;4.68;;
53927;SDS011;39837;47.630;18.822;2023-03-01T05:36:56;9.60;;;5.45;;
53927;SDS011;39837;47.630;18.822;2023-03-01T05:39:41;8.40;;;4.00;;
53927;SDS011;39837;47.630;18.822;2023-03-01T05:42:25;7.13;;;4.03;;
53927;SDS011;39837;47.630;18.822;2023-03-01T05:45:09;14.63;;;4.82;;
53927;SDS011;39837;47.630;18.822;2023-03-01T05:47:54;7.97;;;4.43;;
53927;SDS011;39837;47.630;18.822;2023-03-01T05:50:42;6.85;;;3.75;;
53927;SDS011;39837;47.630;18.822;2023-03-01T05:53:27;6.82;;;4.95;;
53927;SDS011;39837;47.630;18.822;2023-03-01T05:56:11;7.43;;;4.03;;
53927;SDS011;39837;47.630;18.822;2023-03-01T05:58:55;5.32;;;4.82;;
53927;SDS011;39837;47.630;18.822;2023-03-01T06:01:39;6.88;;;5.53;;
53927;SDS011;39837;47.630;18.822;2023-03-01T06:04:23;8.38;;;5.45;;
53927;SDS011;39837;47.630;18.822;2023-03-01T06:07:08;9.80;;;4.82;;
53927;SDS011;39837;47.630;18.822;2023-03-01T06:09:52;4.55;;;4.20;;
53927;SDS011;39837;47.630;18.822;2023-03-01T06:12:36;8.15;;;5.07;;
53927;SDS011;39837;47.630;18.822;2023-03-01T06:15:21;6.90;;;5.50;;
53927;SDS011;39837;47.630;18.822;2023-03-01T06:18:06;7.70;;;5.47;;
53927;SDS011;39837;47.630;18.822;2023-03-01T06:20:54;15.00;;;7.38;;
53927;SDS011;39837;47.630;18.822;2023-03-01T06:23:38;5.90;;;4.55;;
53927;SDS011;39837;47.630;18.822;2023-03-01T06:26:23;13.75;;;6.80;;
53927;SDS011;39837;47.630;18.822;2023-03-01T06:29:06;5.70;;;5.15;;
53927;SDS011;39837;47.630;18.822;2023-03-01T06:31:52;12.27;;;6.75;;
53927;SDS011;39837;47.630;18.822;2023-03-01T06:34:36;6.63;;;5.47;;
53927;SDS011;39837;47.630;18.822;2023-03-01T06:37:20;7.32;;;4.65;;
53927;SDS011;39837;47.630;18.822;2023-03-01T06:40:04;6.63;;;5.47;;
53927;SDS011;39837;47.630;18.822;2023-03-01T06:42:52;25.30;;;15.07;;
53927;SDS011;39837;47.630;18.822;2023-03-01T06:45:36;16.35;;;9.32;;
53927;SDS011;39837;47.630;18.822;2023-03-01T06:48:21;9.05;;;5.50;;
53927;SDS011;39837;47.630;18.822;2023-03-01T06:51:05;25.55;;;7.32;;
53927;SDS011;39837;47.630;18.822;2023-03-01T06:53:48;8.55;;;6.05;;
53927;SDS011;39837;47.630;18.822;2023-03-01T06:56:33;17.83;;;11.48;;
53927;SDS011;39837;47.630;18.822;2023-03-01T06:59:17;10.38;;;7.35;;
53927;SDS011;39837;47.630;18.822;2023-03-01T07:02:01;17.08;;;5.32;;
53927;SDS011;39837;47.630;18.822;2023-03-01T07:04:45;6.22;;;4.40;;
53927;SDS011;39837;47.630;18.822;2023-03-01T07:07:30;6.57;;;3.92;;
53927;SDS011;39837;47.630;18.822;2023-03-01T07:10:14;4.68;;;4.22;;
53927;SDS011;39837;47.630;18.822;2023-03-01T07:12:58;6.63;;;5.70;;
53927;SDS011;39837;47.630;18.822;2023-03-01T07:15:42;5.68;;;4.90;;
53927;SDS011;39837;47.630;18.822;2023-03-01T07:18:26;12.43;;;6.47;;
53927;SDS011;39837;47.630;18.822;2023-03-01T07:21:11;6.50;;;5.45;;
53927;SDS011;39837;47.630;18.822;2023-03-01T07:23:56;5.93;;;5.03;;
53927;SDS011;39837;47.630;18.822;2023-03-01T07:26:40;11.85;;;6.47;;
53927;SDS011;39837;47.630;18.822;2023-03-01T07:29:24;12.52;;;6.97;;
53927;SDS011;39837;47.630;18.822;2023-03-01T07:32:08;7.70;;;6.05;;
53927;SDS011;39837;47.630;18.822;2023-03-01T07:34:53;7.57;;;6.07;;
53927;SDS011;39837;47.630;18.822;2023-03-01T07:37:37;7.45;;;4.85;;
53927;SDS011;39837;47.630;18.822;2023-03-01T07:40:21;8.40;;;5.63;;
53927;SDS011;39837;47.630;18.822;2023-03-01T07:43:05;9.57;;;6.28;;
53927;SDS011;39837;47.630;18.822;2023-03-01T07:45:49;8.98;;;7.20;;
53927;SDS011;39837;47.630;18.822;2023-03-01T07:48:33;7.22;;;6.20;;
53927;SDS011;39837;47.630;18.822;2023-03-01T07:51:17;7.72;;;4.70;;
53927;SDS011;39837;47.630;18.822;2023-03-01T07:54:01;6.50;;;4.25;;
53927;SDS011;39837;47.630;18.822;2023-03-01T07:56:46;5.68;;;4.80;;
53927;SDS011;39837;47.630;18.822;2023-03-01T07:59:30;8.68;;;4.18;;
53927;SDS011;39837;47.630;18.822;2023-03-01T08:02:14;6.53;;;5.05;;
53927;SDS011;39837;47.630;18.822;2023-03-01T08:04:58;4.45;;;4.13;;
53927;SDS011;39837;47.630;18.822;2023-03-01T08:07:42;4.50;;;4.15;;
53927;SDS011;39837;47.630;18.822;2023-03-01T08:10:26;17.42;;;5.85;;
53927;SDS011;39837;47.630;18.822;2023-03-01T08:13:10;7.63;;;5.80;;
53927;SDS011;39837;47.630;18.822;2023-03-01T08:15:54;8.25;;;5.47;;
53927;SDS011;39837;47.630;18.822;2023-03-01T08:18:39;5.28;;;4.40;;
53927;SDS011;39837;47.630;18.822;2023-03-01T08:21:22;5.32;;;4.68;;
53927;SDS011;39837;47.630;18.822;2023-03-01T08:24:07;12.60;;;4.93;;
53927;SDS011;39837;47.630;18.822;2023-03-01T08:26:51;5.20;;;4.75;;
53927;SDS011;39837;47.630;18.822;2023-03-01T08:29:35;5.45;;;4.95;;
53927;SDS011;39837;47.630;18.822;2023-03-01T08:32:19;4.63;;;4.15;;
53927;SDS011;39837;47.630;18.822;2023-03-01T08:35:03;5.72;;;4.70;;
53927;SDS011;39837;47.630;18.822;2023-03-01T08:37:47;6.15;;;5.55;;
53927;SDS011;39837;47.630;18.822;2023-03-01T08:40:32;5.63;;;5.15;;
53927;SDS011;39837;47.630;18.822;2023-03-01T08:43:16;5.68;;;5.00;;
53927;SDS011;39837;47.630;18.822;2023-03-01T08:46:04;5.38;;;4.97;;
53927;SDS011;39837;47.630;18.822;2023-03-01T08:48:54;6.97;;;3.88;;
53927;SDS011;39837;47.630;18.822;2023-03-01T08:51:39;5.15;;;4.47;;
53927;SDS011;39837;47.630;18.822;2023-03-01T08:54:23;6.43;;;4.03;;
53927;SDS011;39837;47.630;18.822;2023-03-01T08:57:08;4.40;;;3.88;;
53927;SDS011;39837;47.630;18.822;2023-03-01T08:59:52;5.35;;;3.78;;
53927;SDS011;39837;47.630;18.822;2023-03-01T09:02:39;4.45;;;4.07;;
53927;SDS011;39837;47.630;18.822;2023-03-01T09:05:23;8.23;;;4.07;;
53927;SDS011;39837;47.630;18.822;2023-03-01T09:08:07;18.70;;;5.30;;
53927;SDS011;39837;47.630;18.822;2023-03-01T09:10:51;3.70;;;3.50;;
53927;SDS011;39837;47.630;18.822;2023-03-01T09:13:36;4.88;;;4.53;;
53927;SDS011;39837;47.630;18.822;2023-03-01T09:16:20;8.20;;;4.88;;
53927;SDS011;39837;47.630;18.822;2023-03-01T09:19:05;4.78;;;4.28;;
53927;SDS011;39837;47.630;18.822;2023-03-01T09:21:49;19.25;;;5.03;;
53927;SDS011;39837;47.630;18.822;2023-03-01T09:24:36;5.72;;;4.70;;
53927;SDS011;39837;47.630;18.822;2023-03-01T09:27:20;6.25;;;4.85;;
53927;SDS011;39837;47.630;18.822;2023-03-01T09:30:04;4.53;;;3.33;;
53927;SDS011;39837;47.630;18.822;2023-03-01T09:32:48;6.80;;;3.55;;
53927;SDS011;39837;47.630;18.822;2023-03-01T09:35:32;3.60;;;3.40;;
53927;SDS011;39837;47.630;18.822;2023-03-01T09:38:16;2.38;;;2.28;;
53927;SDS011;39837;47.630;18.822;2023-03-01T09:41:00;3.33;;;3.10;;
53927;SDS011;39837;47.630;18.822;2023-03-01T09:43:49;2.38;;;2.28;;
53927;SDS011;39837;47.630;18.822;2023-03-01T09:46:40;3.15;;;2.85;;
53927;SDS011;39837;47.630;18.822;2023-03-01T09:49:55;4.30;;;4.00;;
53927;SDS011;39837;47.630;18.822;2023-03-01T10:01:26;6.05;;;2.70;;
53927;SDS011;39837;47.630;18.822;2023-03-01T10:07:30;4.15;;;2.58;;
53927;SDS011;39837;47.630;18.822;2023-03-01T10:10:35;3.85;;;3.47;;
53927;SDS011;39837;47.630;18.822;2023-03-01T10:13:25;3.83;;;2.33;;
53927;SDS011;39837;47.630;18.822;2023-03-01T10:16:15;1.70;;;1.67;;
53927;SDS011;39837;47.630;18.822;2023-03-01T10:19:02;1.67;;;1.65;;
53927;SDS011;39837;47.630;18.822;2023-03-01T10:21:47;1.95;;;1.90;;
53927;SDS011;39837;47.630;18.822;2023-03-01T10:24:34;2.65;;;2.47;;
53927;SDS011;39837;47.630;18.822;2023-03-01T10:33:26;1.90;;;1.90;;
53927;SDS011;39837;47.630;18.822;2023-03-01T10:36:12;1.80;;;1.80;;
53927;SDS011;39837;47.630;18.822;2023-03-01T10:38:56;1.63;;;1.52;;
53927;SDS011;39837;47.630;18.822;2023-03-01T10:41:52;2.65;;;2.45;;
53927;SDS011;39837;47.630;18.822;2023-03-01T10:44:47;2.10;;;2.00;;
53927;SDS011;39837;47.630;18.822;2023-03-01T10:47:32;2.50;;;2.30;;
53927;SDS011;39837;47.630;18.822;2023-03-01T10:50:20;2.00;;;1.90;;
53927;SDS011;39837;47.630;18.822;2023-03-01T10:56:13;2.47;;;2.38;;
53927;SDS011;39837;47.630;18.822;2023-03-01T11:01:45;2.20;;;1.83;;
53927;SDS011;39837;47.630;18.822;2023-03-01T11:04:29;1.88;;;1.77;;
53927;SDS011;39837;47.630;18.822;2023-03-01T11:07:13;2.10;;;2.00;;
53927;SDS011;39837;47.630;18.822;2023-03-01T11:09:57;1.73;;;1.73;;
53927;SDS011;39837;47.630;18.822;2023-03-01T11:12:41;1.60;;;1.60;;
53927;SDS011;39837;47.630;18.822;2023-03-01T11:15:26;2.78;;;2.53;;
53927;SDS011;39837;47.630;18.822;2023-03-01T11:18:19;2.65;;;1.80;;
53927;SDS011;39837;47.630;18.822;2023-03-01T11:21:05;2.25;;;2.15;;
53927;SDS011;39837;47.630;18.822;2023-03-01T11:23:50;2.17;;;2.07;;
53927;SDS011;39837;47.630;18.822;2023-03-01T11:26:34;4.32;;;3.33;;
53927;SDS011;39837;47.630;18.822;2023-03-01T11:29:25;3.42;;;2.53;;
53927;SDS011;39837;47.630;18.822;2023-03-01T11:32:11;1.60;;;1.60;;
53927;SDS011;39837;47.630;18.822;2023-03-01T11:34:58;1.88;;;1.83;;
53927;SDS011;39837;47.630;18.822;2023-03-01T11:41:21;2.13;;;2.03;;
53927;SDS011;39837;47.630;18.822;2023-03-01T11:44:02;4.07;;;2.05;;
53927;SDS011;39837;47.630;18.822;2023-03-01T11:52:57;5.70;;;3.42;;
53927;SDS011;39837;47.630;18.822;2023-03-01T11:56:07;5.50;;;3.47;;
53927;SDS011;39837;47.630;18.822;2023-03-01T12:02:33;3.20;;;3.03;;
53927;SDS011;39837;47.630;18.822;2023-03-01T12:14:52;10.13;;;3.65;;
53927;SDS011;39837;47.630;18.822;2023-03-01T12:21:05;6.93;;;4.20;;
53927;SDS011;39837;47.630;18.822;2023-03-01T12:30:38;2.97;;;2.78;;
53927;SDS011;39837;47.630;18.822;2023-03-01T12:36:36;7.65;;;3.53;;
53927;SDS011;39837;47.630;18.822;2023-03-01T12:48:34;5.13;;;3.75;;
53927;SDS011;39837;47.630;18.822;2023-03-01T12:51:40;2.85;;;2.65;;
53927;SDS011;39837;47.630;18.822;2023-03-01T12:54:47;4.50;;;2.85;;
53927;SDS011;39837;47.630;18.822;2023-03-01T13:13:11;6.80;;;3.88;;
53927;SDS011;39837;47.630;18.822;2023-03-01T13:19:37;3.40;;;3.17;;
53927;SDS011;39837;47.630;18.822;2023-03-01T13:22:28;3.97;;;3.67;;
53927;SDS011;39837;47.630;18.822;2023-03-01T13:25:18;6.60;;;4.43;;
53927;SDS011;39837;47.630;18.822;2023-03-01T13:33:59;5.75;;;3.42;;
53927;SDS011;39837;47.630;18.822;2023-03-01T13:36:51;2.95;;;2.75;;
53927;SDS011;39837;47.630;18.822;2023-03-01T13:39:39;3.28;;;3.08;;
53927;SDS011;39837;47.630;18.822;2023-03-01T13:42:37;2.83;;;2.60;;
53927;SDS011;39837;47.630;18.822;2023-03-01T13:45:40;5.72;;;2.90;;
53927;SDS011;39837;47.630;18.822;2023-03-01T13:48:25;4.15;;;3.75;;
53927;SDS011;39837;47.630;18.822;2023-03-01T13:51:11;3.63;;;3.33;;
53927;SDS011;39837;47.630;18.822;2023-03-01T13:53:56;3.17;;;2.85;;
53927;SDS011;39837;47.630;18.822;2023-03-01T13:56:42;2.55;;;2.40;;
53927;SDS011;39837;47.630;18.822;2023-03-01T13:59:27;4.65;;;3.58;;
53927;SDS011;39837;47.630;18.822;2023-03-01T14:02:13;6.75;;;2.75;;
53927;SDS011;39837;47.630;18.822;2023-03-01T14:04:59;2.67;;;2.55;;
53927;SDS011;39837;47.630;18.822;2023-03-01T14:07:43;2.60;;;2.40;;
53927;SDS011;39837;47.630;18.822;2023-03-01T14:10:37;5.43;;;4.15;;
53927;SDS011;39837;47.630;18.822;2023-03-01T14:16:49;4.30;;;3.90;;
53927;SDS011;39837;47.630;18.822;2023-03-01T14:19:37;7.88;;;4.20;;
53927;SDS011;39837;47.630;18.822;2023-03-01T14:25:20;14.15;;;3.25;;
53927;SDS011;39837;47.630;18.822;2023-03-01T14:31:03;2.10;;;2.00;;
53927;SDS011;39837;47.630;18.822;2023-03-01T14:33:53;4.75;;;3.22;;
53927;SDS011;39837;47.630;18.822;2023-03-01T14:36:38;16.88;;;8.65;;
53927;SDS011;39837;47.630;18.822;2023-03-01T14:39:26;4.70;;;4.28;;
53927;SDS011;39837;47.630;18.822;2023-03-01T14:42:10;3.28;;;3.08;;
53927;SDS011;39837;47.630;18.822;2023-03-01T14:44:56;4.63;;;3.70;;
53927;SDS011;39837;47.630;18.822;2023-03-01T14:47:40;4.63;;;3.63;;
53927;SDS011;39837;47.630;18.822;2023-03-01T14:50:26;4.10;;;3.10;;
53927;SDS011;39837;47.630;18.822;2023-03-01T14:53:24;5.00;;;3.47;;
53927;SDS011;39837;47.630;18.822;2023-03-01T14:56:14;5.22;;;3.17;;
53927;SDS011;39837;47.630;18.822;2023-03-01T14:59:01;5.07;;;3.05;;
53927;SDS011;39837;47.630;18.822;2023-03-01T15:01:45;8.13;;;3.67;;
53927;SDS011;39837;47.630;18.822;2023-03-01T15:04:29;3.17;;;2.97;;
53927;SDS011;39837;47.630;18.822;2023-03-01T15:07:14;4.47;;;3.58;;
53927;SDS011;39837;47.630;18.822;2023-03-01T15:09:58;4.80;;;3.50;;
53927;SDS011;39837;47.630;18.822;2023-03-01T15:12:43;5.30;;;4.80;;
53927;SDS011;39837;47.630;18.822;2023-03-01T15:15:35;9.20;;;4.57;;
53927;SDS011;39837;47.630;18.822;2023-03-01T15:18:29;3.05;;;2.75;;
53927;SDS011;39837;47.630;18.822;2023-03-01T15:21:18;4.13;;;3.55;;
53927;SDS011;39837;47.630;18.822;2023-03-01T15:27:02;5.05;;;3.92;;
53927;SDS011;39837;47.630;18.822;2023-03-01T15:29:54;5.15;;;4.25;;
53927;SDS011;39837;47.630;18.822;2023-03-01T15:32:40;14.50;;;4.50;;
53927;SDS011;39837;47.630;18.822;2023-03-01T15:35:59;4.97;;;4.38;;
53927;SDS011;39837;47.630;18.822;2023-03-01T15:38:58;5.38;;;4.68;;
53927;SDS011;39837;47.630;18.822;2023-03-01T15:41:46;6.82;;;4.65;;
53927;SDS011;39837;47.630;18.822;2023-03-01T15:44:32;6.32;;;4.10;;
53927;SDS011;39837;47.630;18.822;2023-03-01T15:47:26;5.47;;;4.82;;
53927;SDS011;39837;47.630;18.822;2023-03-01T15:50:16;3.90;;;3.58;;
53927;SDS011;39837;47.630;18.822;2023-03-01T15:53:07;6.05;;;4.65;;
53927;SDS011;39837;47.630;18.822;2023-03-01T15:55:55;11.55;;;4.70;;
53927;SDS011;39837;47.630;18.822;2023-03-01T15:58:39;5.45;;;4.40;;
53927;SDS011;39837;47.630;18.822;2023-03-01T16:01:25;4.07;;;3.67;;
53927;SDS011;39837;47.630;18.822;2023-03-01T16:04:10;9.68;;;4.50;;
53927;SDS011;39837;47.630;18.822;2023-03-01T16:06:59;17.58;;;4.47;;
53927;SDS011;39837;47.630;18.822;2023-03-01T16:09:44;5.63;;;4.30;;
53927;SDS011;39837;47.630;18.822;2023-03-01T16:12:28;4.10;;;3.50;;
53927;SDS011;39837;47.630;18.822;2023-03-01T16:15:14;4.40;;;4.00;;
53927;SDS011;39837;47.630;18.822;2023-03-01T16:18:02;7.22;;;5.15;;
53927;SDS011;39837;47.630;18.822;2023-03-01T16:20:46;5.25;;;4.65;;
53927;SDS011;39837;47.630;18.822;2023-03-01T16:23:32;4.90;;;3.97;;
53927;SDS011;39837;47.630;18.822;2023-03-01T16:26:16;4.20;;;3.83;;
53927;SDS011;39837;47.630;18.822;2023-03-01T16:29:01;4.68;;;3.47;;
53927;SDS011;39837;47.630;18.822;2023-03-01T16:31:46;4.78;;;4.28;;
53927;SDS011;39837;47.630;18.822;2023-03-01T16:34:31;4.80;;;4.43;;
53927;SDS011;39837;47.630;18.822;2023-03-01T16:37:15;4.07;;;3.78;;
53927;SDS011;39837;47.630;18.822;2023-03-01T16:40:00;3.40;;;3.10;;
53927;SDS011;39837;47.630;18.822;2023-03-01T16:42:44;4.45;;;4.00;;
53927;SDS011;39837;47.630;18.822;2023-03-01T16:45:32;6.68;;;5.40;;
53927;SDS011;39837;47.630;18.822;2023-03-01T16:48:18;4.45;;;3.67;;
53927;SDS011;39837;47.630;18.822;2023-03-01T16:51:02;4.80;;;4.28;;
53927;SDS011;39837;47.630;18.822;2023-03-01T16:53:47;10.85;;;4.80;;
53927;SDS011;39837;47.630;18.822;2023-03-01T16:56:32;5.88;;;4.57;;
53927;SDS011;39837;47.630;18.822;2023-03-01T16:59:18;4.57;;;3.28;;
53927;SDS011;39837;47.630;18.822;2023-03-01T17:02:04;4.05;;;3.75;;
53927;SDS011;39837;47.630;18.822;2023-03-01T17:04:53;6.78;;;3.30;;
53927;SDS011;39837;47.630;18.822;2023-03-01T17:07:38;4.85;;;3.63;;
53927;SDS011;39837;47.630;18.822;2023-03-01T17:10:23;4.35;;;3.85;;
53927;SDS011;39837;47.630;18.822;2023-03-01T17:13:08;7.00;;;4.60;;
53927;SDS011;39837;47.630;18.822;2023-03-01T17:15:52;4.55;;;4.13;;
53927;SDS011;39837;47.630;18.822;2023-03-01T17:18:38;3.75;;;3.45;;
53927;SDS011;39837;47.630;18.822;2023-03-01T17:21:22;6.22;;;4.38;;
53927;SDS011;39837;47.630;18.822;2023-03-01T17:24:06;6.05;;;4.93;;
53927;SDS011;39837;47.630;18.822;2023-03-01T17:26:51;6.57;;;4.25;;
53927;SDS011;39837;47.630;18.822;2023-03-01T17:29:35;3.90;;;3.55;;
53927;SDS011;39837;47.630;18.822;2023-03-01T17:32:20;3.83;;;3.53;;
53927;SDS011;39837;47.630;18.822;2023-03-01T17:35:05;3.90;;;3.47;;
53927;SDS011;39837;47.630;18.822;2023-03-01T17:37:54;3.47;;;3.13;;
53927;SDS011;39837;47.630;18.822;2023-03-01T17:40:40;3.97;;;3.55;;
53927;SDS011;39837;47.630;18.822;2023-03-01T17:43:25;4.40;;;3.13;;
53927;SDS011;39837;47.630;18.822;2023-03-01T17:46:10;4.00;;;3.58;;
53927;SDS011;39837;47.630;18.822;2023-03-01T17:48:54;3.63;;;3.33;;
53927;SDS011;39837;47.630;18.822;2023-03-01T17:51:39;3.03;;;2.72;;
53927;SDS011;39837;47.630;18.822;2023-03-01T17:54:23;3.97;;;2.60;;
53927;SDS011;39837;47.630;18.822;2023-03-01T17:57:07;4.95;;;3.13;;
53927;SDS011;39837;47.630;18.822;2023-03-01T17:59:51;9.73;;;4.43;;
53927;SDS011;39837;47.630;18.822;2023-03-01T18:02:35;5.63;;;3.42;;
53927;SDS011;39837;47.630;18.822;2023-03-01T18:05:19;3.03;;;2.80;;
53927;SDS011;39837;47.630;18.822;2023-03-01T18:08:03;2.28;;;2.17;;
53927;SDS011;39837;47.630;18.822;2023-03-01T18:10:48;3.55;;;3.30;;
53927;SDS011;39837;47.630;18.822;2023-03-01T18:13:32;7.65;;;2.85;;
53927;SDS011;39837;47.630;18.822;2023-03-01T18:16:17;6.43;;;3.38;;
53927;SDS011;39837;47.630;18.822;2023-03-01T18:19:02;2.17;;;2.08;;